createdAt,value
2019-03-25T00:01:16.311Z,4.50
2019-03-25T00:03:44.200Z,4.50
2019-03-25T00:06:12.109Z,4.60
2019-03-25T00:08:40.031Z,4.50
2019-03-25T00:11:07.984Z,4.50
2019-03-25T00:13:35.899Z,4.50
2019-03-25T00:16:03.959Z,4.50
2019-03-25T00:18:31.897Z,4.50
2019-03-25T00:20:59.792Z,4.60
2019-03-25T00:23:27.724Z,4.60
2019-03-25T00:25:55.597Z,4.70
2019-03-25T00:28:23.528Z,4.70
2019-03-25T00:30:51.346Z,4.80
2019-03-25T00:33:19.248Z,4.80
2019-03-25T00:35:47.149Z,4.80
2019-03-25T00:38:15.036Z,4.80
2019-03-25T00:40:42.862Z,4.80
2019-03-25T00:43:10.818Z,4.90
2019-03-25T00:45:38.663Z,4.90
2019-03-25T00:48:06.553Z,4.90
2019-03-25T00:50:34.425Z,4.90
2019-03-25T00:53:02.288Z,4.90
2019-03-25T00:55:30.229Z,4.90
2019-03-25T00:57:58.099Z,5.00
2019-03-25T01:00:25.998Z,4.90
2019-03-25T01:02:53.888Z,4.90
2019-03-25T01:05:21.816Z,5.00
2019-03-25T01:07:49.683Z,4.90
2019-03-25T01:10:17.599Z,5.00
2019-03-25T01:12:45.543Z,5.00
2019-03-25T01:15:13.423Z,4.90
2019-03-25T01:17:41.369Z,4.90
2019-03-25T01:20:09.447Z,4.90
2019-03-25T01:22:37.395Z,4.90
2019-03-25T01:25:06.233Z,4.90
2019-03-25T01:27:34.129Z,4.90
2019-03-25T01:30:02.079Z,4.90
2019-03-25T01:32:29.880Z,4.90
2019-03-25T01:34:57.759Z,4.90
2019-03-25T01:37:25.595Z,4.90
2019-03-25T01:39:53.449Z,5.00
2019-03-25T01:42:21.309Z,5.00
2019-03-25T01:44:49.197Z,5.00
2019-03-25T01:47:17.025Z,5.00
2019-03-25T01:49:44.927Z,5.10
2019-03-25T01:52:12.960Z,5.10
2019-03-25T01:54:40.838Z,5.10
2019-03-25T01:57:08.644Z,5.20
2019-03-25T01:59:36.580Z,5.20
2019-03-25T02:02:04.519Z,5.20
2019-03-25T02:04:32.421Z,5.20
2019-03-25T02:07:00.300Z,5.10
2019-03-25T02:09:28.179Z,5.00
2019-03-25T02:11:56.076Z,4.90
2019-03-25T02:14:24.000Z,4.80
2019-03-25T02:16:51.937Z,4.80
2019-03-25T02:19:19.795Z,4.70
2019-03-25T02:21:47.621Z,4.70
2019-03-25T02:24:15.586Z,4.70
2019-03-25T02:26:43.449Z,4.70
2019-03-25T02:29:11.352Z,4.80
2019-03-25T02:31:43.500Z,4.80
2019-03-25T02:34:11.411Z,4.80
2019-03-25T02:36:39.280Z,4.90
2019-03-25T02:39:07.161Z,4.90
2019-03-25T02:41:34.987Z,4.90
2019-03-25T02:44:02.782Z,5.00
2019-03-25T02:46:30.717Z,5.00
2019-03-25T02:48:58.647Z,5.00
2019-03-25T02:51:26.465Z,5.10
2019-03-25T02:53:54.313Z,5.00
2019-03-25T02:56:22.199Z,5.00
2019-03-25T02:58:50.078Z,5.00
2019-03-25T03:01:17.862Z,5.00
2019-03-25T03:03:45.803Z,4.90
2019-03-25T03:06:13.678Z,4.90
2019-03-25T03:08:41.699Z,4.90
2019-03-25T03:11:09.558Z,4.90
2019-03-25T03:13:37.465Z,4.90
2019-03-25T03:16:05.349Z,4.80
2019-03-25T03:18:33.198Z,4.80
2019-03-25T03:21:01.076Z,4.80
2019-03-25T03:23:28.879Z,4.80
2019-03-25T03:25:58.213Z,4.70
2019-03-25T03:28:26.274Z,4.80
2019-03-25T03:30:54.215Z,4.80
2019-03-25T03:33:22.272Z,4.90
2019-03-25T03:35:50.162Z,4.90
2019-03-25T03:38:18.026Z,4.80
2019-03-25T03:40:45.930Z,4.90
2019-03-25T03:43:13.802Z,4.80
2019-03-25T03:45:41.612Z,4.90
2019-03-25T03:48:09.504Z,4.90
2019-03-25T03:50:37.588Z,4.90
2019-03-25T03:53:05.532Z,4.90
2019-03-25T03:55:34.151Z,4.90
2019-03-25T03:58:02.180Z,4.90
2019-03-25T04:00:30.816Z,4.90
2019-03-25T04:02:58.987Z,4.80
2019-03-25T04:05:26.903Z,4.80
2019-03-25T04:07:54.751Z,4.80
2019-03-25T04:10:22.644Z,4.80
2019-03-25T04:12:50.560Z,4.80
2019-03-25T04:15:25.723Z,4.80
2019-03-25T04:17:53.668Z,4.70
2019-03-25T04:20:21.449Z,4.80
2019-03-25T04:22:49.549Z,4.70
2019-03-25T04:25:17.368Z,4.80
2019-03-25T04:27:45.271Z,4.80
2019-03-25T04:30:13.301Z,4.70
2019-03-25T04:32:41.333Z,4.80
2019-03-25T04:35:09.346Z,4.70
2019-03-25T04:37:37.180Z,4.70
2019-03-25T04:40:08.284Z,4.70
2019-03-25T04:42:36.115Z,4.60
2019-03-25T04:45:05.652Z,4.60
2019-03-25T04:47:34.094Z,4.50
2019-03-25T04:50:01.954Z,4.50
2019-03-25T04:52:29.889Z,4.60
2019-03-25T04:54:57.727Z,4.60
2019-03-25T04:57:25.623Z,4.50
2019-03-25T04:59:53.521Z,4.50
2019-03-25T05:02:21.312Z,4.50
2019-03-25T05:04:49.210Z,4.50
2019-03-25T05:07:17.266Z,4.40
2019-03-25T05:09:45.120Z,4.40
2019-03-25T05:12:12.991Z,4.40
2019-03-25T05:14:40.879Z,4.40
2019-03-25T05:17:08.695Z,4.40
2019-03-25T05:19:36.634Z,4.40
2019-03-25T05:22:04.453Z,4.40
2019-03-25T05:24:32.363Z,4.40
2019-03-25T05:27:00.168Z,4.40
2019-03-25T05:29:27.999Z,4.40
2019-03-25T05:31:55.848Z,4.40
2019-03-25T05:34:23.782Z,4.40
2019-03-25T05:36:51.628Z,4.40
2019-03-25T05:39:19.452Z,4.40
2019-03-25T05:41:47.310Z,4.40
2019-03-25T05:44:15.195Z,4.40
2019-03-25T05:46:43.040Z,4.40
2019-03-25T05:49:10.874Z,4.40
2019-03-25T05:51:38.723Z,4.40
2019-03-25T05:54:06.569Z,4.40
2019-03-25T05:56:34.531Z,4.40
2019-03-25T05:59:02.399Z,4.40
2019-03-25T06:01:30.591Z,4.30
2019-03-25T06:03:58.402Z,4.30
2019-03-25T06:06:26.313Z,4.30
2019-03-25T06:08:54.230Z,4.30
2019-03-25T06:11:22.133Z,4.20
2019-03-25T06:13:50.003Z,4.20
2019-03-25T06:16:17.919Z,4.20
2019-03-25T06:18:45.768Z,4.20
2019-03-25T06:21:13.840Z,4.30
2019-03-25T06:23:41.680Z,4.40
2019-03-25T06:26:09.541Z,4.50
2019-03-25T06:28:37.400Z,4.50
2019-03-25T06:31:05.333Z,4.50
2019-03-25T06:33:33.207Z,4.50
2019-03-25T06:36:01.190Z,4.40
2019-03-25T06:38:29.055Z,4.40
2019-03-25T06:40:56.939Z,4.30
2019-03-25T06:43:24.801Z,4.30
2019-03-25T06:45:52.666Z,4.20
2019-03-25T06:48:20.454Z,4.20
2019-03-25T06:50:48.288Z,4.20
2019-03-25T06:53:16.224Z,4.20
2019-03-25T06:55:44.116Z,4.20
2019-03-25T06:58:12.157Z,4.30
2019-03-25T07:00:40.079Z,4.30
2019-03-25T07:03:07.872Z,4.40
2019-03-25T07:05:35.843Z,4.40
2019-03-25T07:08:03.682Z,4.40
2019-03-25T07:10:32.592Z,4.40
2019-03-25T07:13:01.110Z,4.50
2019-03-25T07:15:29.131Z,4.60
2019-03-25T07:17:57.050Z,4.70
2019-03-25T07:20:24.971Z,4.80
2019-03-25T07:22:52.860Z,4.90
2019-03-25T07:25:20.753Z,5.00
2019-03-25T07:27:48.697Z,5.10
2019-03-25T07:30:16.582Z,5.20
2019-03-25T07:32:44.439Z,5.30
2019-03-25T07:35:12.347Z,5.40
2019-03-25T07:37:40.291Z,5.50
2019-03-25T07:40:08.447Z,5.50
2019-03-25T07:42:36.398Z,5.60
2019-03-25T07:45:05.965Z,5.60
2019-03-25T07:47:33.835Z,5.50
2019-03-25T07:50:01.797Z,5.40
2019-03-25T07:52:29.622Z,5.40
2019-03-25T07:54:57.541Z,5.20
2019-03-25T07:57:25.468Z,5.10
2019-03-25T07:59:53.371Z,5.10
2019-03-25T08:02:21.276Z,5.00
2019-03-25T08:04:49.233Z,4.90
2019-03-25T08:07:17.057Z,4.80
2019-03-25T08:09:44.923Z,4.70
2019-03-25T08:12:12.774Z,4.50
2019-03-25T08:14:40.616Z,4.50
2019-03-25T08:17:08.538Z,4.40
2019-03-25T08:19:36.418Z,4.40
2019-03-25T08:22:04.317Z,4.40
2019-03-25T08:24:32.120Z,4.40
2019-03-25T08:27:00.038Z,4.50
2019-03-25T08:29:27.886Z,4.60
2019-03-25T08:31:55.842Z,4.70
2019-03-25T08:34:23.655Z,4.70
2019-03-25T08:36:51.576Z,4.80
2019-03-25T08:39:19.438Z,4.80
2019-03-25T08:41:47.336Z,4.90
2019-03-25T08:44:15.205Z,5.00
2019-03-25T08:46:43.044Z,5.10
2019-03-25T08:49:12.020Z,5.20
2019-03-25T08:51:39.993Z,5.30
2019-03-25T08:54:07.839Z,5.30
2019-03-25T08:56:35.763Z,5.30
2019-03-25T08:59:03.699Z,5.30
2019-03-25T09:01:31.554Z,5.40
2019-03-25T09:03:59.387Z,5.40
2019-03-25T09:06:27.264Z,5.50
2019-03-25T09:08:55.091Z,5.70
2019-03-25T09:11:22.982Z,5.80
2019-03-25T09:13:50.807Z,5.80
2019-03-25T09:16:18.743Z,5.80
2019-03-25T09:18:46.603Z,5.70
2019-03-25T09:21:14.560Z,5.70
2019-03-25T09:23:42.486Z,5.60
2019-03-25T09:26:10.370Z,5.60
2019-03-25T09:28:38.157Z,5.60
2019-03-25T09:31:07.551Z,5.70
2019-03-25T09:33:35.441Z,5.70
2019-03-25T09:36:03.502Z,5.80
2019-03-25T09:38:31.447Z,5.70
2019-03-25T09:40:59.246Z,5.60
2019-03-25T09:43:27.130Z,5.40
2019-03-25T09:45:54.965Z,5.30
2019-03-25T09:48:22.830Z,5.20
2019-03-25T09:50:50.711Z,5.30
2019-03-25T09:53:18.698Z,5.40
2019-03-25T09:55:46.559Z,5.50
2019-03-25T09:58:14.364Z,5.60
2019-03-25T10:00:42.263Z,5.80
2019-03-25T10:03:10.163Z,6.00
2019-03-25T10:05:38.038Z,6.00
2019-03-25T10:08:05.860Z,6.00
2019-03-25T10:10:33.796Z,6.10
2019-03-25T10:13:01.692Z,6.20
2019-03-25T10:15:29.587Z,6.50
2019-03-25T10:17:57.495Z,6.80
2019-03-25T10:20:25.393Z,7.10
2019-03-25T10:22:53.204Z,7.40
2019-03-25T10:25:21.101Z,7.60
2019-03-25T10:27:48.993Z,7.80
2019-03-25T10:30:18.712Z,7.80
2019-03-25T10:32:46.623Z,7.70
2019-03-25T10:35:14.605Z,7.60
2019-03-25T10:37:42.510Z,7.50
2019-03-25T10:40:10.772Z,7.40
2019-03-25T10:42:38.719Z,7.10
2019-03-25T10:45:06.642Z,7.00
2019-03-25T10:47:34.594Z,6.80
2019-03-25T10:50:02.503Z,6.70
2019-03-25T10:52:30.509Z,6.60
2019-03-25T10:57:26.144Z,6.70
2019-03-25T10:59:54.033Z,6.90
2019-03-25T11:02:21.936Z,7.00
2019-03-25T11:04:49.865Z,7.30
2019-03-25T11:07:17.815Z,7.50
2019-03-25T11:09:45.803Z,7.80
2019-03-25T11:12:13.697Z,8.30
2019-03-25T11:14:41.622Z,8.40
2019-03-25T11:17:09.507Z,8.20
2019-03-25T11:19:37.361Z,7.80
2019-03-25T11:22:05.253Z,7.60
2019-03-25T11:24:33.171Z,7.10
2019-03-25T11:27:01.094Z,6.60
2019-03-25T11:29:28.956Z,6.40
2019-03-25T11:31:56.830Z,6.30
2019-03-25T11:34:24.656Z,6.60
2019-03-25T11:36:52.554Z,7.10
2019-03-25T11:39:20.401Z,7.40
2019-03-25T11:41:48.320Z,7.30
2019-03-25T11:44:16.222Z,7.40
2019-03-25T11:46:44.175Z,7.60
2019-03-25T11:49:12.077Z,7.80
2019-03-25T11:51:39.995Z,7.90
2019-03-25T11:54:07.938Z,8.20
2019-03-25T11:56:35.780Z,8.50
2019-03-25T11:59:03.685Z,8.60
2019-03-25T12:01:31.571Z,9.00
2019-03-25T12:03:59.466Z,9.10
2019-03-25T12:06:27.390Z,9.70
2019-03-25T12:08:55.298Z,9.70
2019-03-25T12:11:23.784Z,9.10
2019-03-25T12:13:51.674Z,8.50
2019-03-25T12:16:19.567Z,7.70
2019-03-25T12:18:47.554Z,7.10
2019-03-25T12:21:15.344Z,6.60
2019-03-25T12:23:43.267Z,6.30
2019-03-25T12:26:11.208Z,5.90
2019-03-25T12:28:39.252Z,5.60
2019-03-25T12:31:07.113Z,5.60
2019-03-25T12:33:34.965Z,5.70
2019-03-25T12:36:02.967Z,5.80
2019-03-25T12:38:30.915Z,5.90
2019-03-25T12:40:58.831Z,6.10
2019-03-25T12:43:26.628Z,6.30
2019-03-25T12:46:05.441Z,6.70
2019-03-25T12:48:30.360Z,7.20
2019-03-25T12:50:58.245Z,7.60
2019-03-25T12:53:26.214Z,8.10
2019-03-25T12:55:54.124Z,8.30
2019-03-25T12:58:22.002Z,8.80
2019-03-25T13:00:49.836Z,9.10
2019-03-25T13:03:17.741Z,9.50
2019-03-25T13:05:45.765Z,9.70
2019-03-25T13:08:13.706Z,9.50
2019-03-25T13:10:41.587Z,9.90
2019-03-25T13:13:09.557Z,9.90
2019-03-25T13:15:37.488Z,9.70
2019-03-25T13:18:05.513Z,9.30
2019-03-25T13:20:33.335Z,9.20
2019-03-25T13:23:01.160Z,8.90
2019-03-25T13:25:29.063Z,8.60
2019-03-25T13:27:56.992Z,8.10
2019-03-25T13:30:24.892Z,7.60
2019-03-25T13:32:52.838Z,7.00
2019-03-25T13:35:20.746Z,6.60
2019-03-25T13:37:48.635Z,6.60
2019-03-25T13:40:16.547Z,6.60
2019-03-25T13:42:44.363Z,7.00
2019-03-25T13:45:12.302Z,7.40
2019-03-25T13:47:40.165Z,8.10
2019-03-25T13:50:08.728Z,8.60
2019-03-25T13:52:36.535Z,9.30
2019-03-25T13:55:05.564Z,9.20
2019-03-25T13:57:33.378Z,8.90
2019-03-25T14:00:03.651Z,8.60
2019-03-25T14:02:30.722Z,8.60
2019-03-25T14:04:58.663Z,8.40
2019-03-25T14:07:26.471Z,8.20
2019-03-25T14:09:54.339Z,8.00
2019-03-25T14:12:22.184Z,7.80
2019-03-25T14:14:50.041Z,7.40
2019-03-25T14:17:18.839Z,6.80
2019-03-25T14:19:46.671Z,6.50
2019-03-25T14:22:14.547Z,6.20
2019-03-25T14:24:42.367Z,6.00
2019-03-25T14:27:10.289Z,6.10
2019-03-25T14:29:38.124Z,6.40
2019-03-25T14:32:05.941Z,6.70
2019-03-25T14:34:44.196Z,6.90
2019-03-25T14:37:03.398Z,7.20
2019-03-25T14:39:31.250Z,7.20
2019-03-25T14:41:59.163Z,7.30
2019-03-25T14:44:27.225Z,7.70
2019-03-25T14:46:55.123Z,8.50
2019-03-25T14:49:23.011Z,9.30
2019-03-25T14:51:50.843Z,9.70
2019-03-25T14:54:18.712Z,10.60
2019-03-25T14:56:46.618Z,10.80
2019-03-25T14:59:14.682Z,11.10
2019-03-25T15:01:42.618Z,11.50
2019-03-25T15:04:10.512Z,11.00
2019-03-25T15:06:38.392Z,10.30
2019-03-25T15:09:06.851Z,9.70
2019-03-25T15:11:34.753Z,9.20
2019-03-25T15:14:02.769Z,8.60
2019-03-25T15:16:30.669Z,8.20
2019-03-25T15:18:58.545Z,8.00
2019-03-25T15:21:26.493Z,7.80
2019-03-25T15:23:54.362Z,7.60
2019-03-25T15:26:22.143Z,7.50
2019-03-25T15:28:49.980Z,7.50
2019-03-25T15:31:17.812Z,7.40
2019-03-25T15:33:45.730Z,7.40
2019-03-25T15:36:13.547Z,7.50
2019-03-25T15:38:41.457Z,7.40
2019-03-25T15:41:09.215Z,7.40
2019-03-25T15:43:37.166Z,7.30
2019-03-25T15:46:05.074Z,7.40
2019-03-25T15:48:32.924Z,7.30
2019-03-25T15:51:00.827Z,7.30
2019-03-25T15:53:28.887Z,7.30
2019-03-25T15:55:56.894Z,7.20
2019-03-25T15:58:26.219Z,7.20
2019-03-25T16:00:54.521Z,7.30
2019-03-25T16:03:22.454Z,8.00
2019-03-25T16:05:50.382Z,8.80
2019-03-25T16:08:18.300Z,9.10
2019-03-25T16:10:46.100Z,9.30
2019-03-25T16:13:14.138Z,9.00
2019-03-25T16:15:42.990Z,8.80
2019-03-25T16:18:12.361Z,8.80
2019-03-25T16:20:40.312Z,9.40
2019-03-25T16:23:08.213Z,10.20
2019-03-25T16:25:36.078Z,10.70
2019-03-25T16:28:03.983Z,11.10
2019-03-25T16:30:32.004Z,11.30
2019-03-25T16:32:59.893Z,11.60
2019-03-25T16:35:27.765Z,11.60
2019-03-25T16:37:55.629Z,11.60
2019-03-25T16:40:23.524Z,11.60
2019-03-25T16:42:51.388Z,11.80
2019-03-25T16:45:19.332Z,11.40
2019-03-25T16:47:47.143Z,11.40
2019-03-25T16:50:15.026Z,11.60
2019-03-25T16:52:42.902Z,11.40
2019-03-25T16:55:10.729Z,11.20
2019-03-25T16:57:38.625Z,10.80
2019-03-25T17:00:06.623Z,10.60
2019-03-25T17:02:34.495Z,10.10
2019-03-25T17:05:02.437Z,9.50
2019-03-25T17:07:30.370Z,9.00
2019-03-25T17:09:58.209Z,8.60
2019-03-25T17:12:26.105Z,8.40
2019-03-25T17:14:53.897Z,8.20
2019-03-25T17:17:21.755Z,8.00
2019-03-25T17:19:49.634Z,7.90
2019-03-25T17:22:17.475Z,7.80
2019-03-25T17:24:45.296Z,7.80
2019-03-25T17:27:13.242Z,7.70
2019-03-25T17:29:41.097Z,7.60
2019-03-25T17:32:08.982Z,7.50
2019-03-25T17:34:36.840Z,7.50
2019-03-25T17:37:04.653Z,7.50
2019-03-25T17:39:32.537Z,7.40
2019-03-25T17:42:00.362Z,7.40
2019-03-25T17:44:28.231Z,7.40
2019-03-25T17:46:56.048Z,7.40
2019-03-25T17:49:23.955Z,7.40
2019-03-25T17:51:51.773Z,7.40
2019-03-25T17:54:19.595Z,7.40
2019-03-25T17:56:47.573Z,7.30
2019-03-25T17:59:15.413Z,7.30
2019-03-25T18:01:43.480Z,7.30
2019-03-25T18:04:11.270Z,7.30
2019-03-25T18:06:39.177Z,7.30
2019-03-25T18:09:07.286Z,7.20
2019-03-25T18:11:35.225Z,7.20
2019-03-25T18:14:03.106Z,7.20
2019-03-25T18:16:30.932Z,7.10
2019-03-25T18:18:58.876Z,7.10
2019-03-25T18:21:26.783Z,7.10
2019-03-25T18:23:54.741Z,7.10
2019-03-25T18:26:22.615Z,7.00
2019-03-25T18:28:50.504Z,7.00
2019-03-25T18:31:18.539Z,6.90
2019-03-25T18:33:46.436Z,6.80
2019-03-25T18:36:14.300Z,6.70
2019-03-25T18:38:42.173Z,6.70
2019-03-25T18:41:10.072Z,6.60
2019-03-25T18:43:37.976Z,6.60
2019-03-25T18:46:05.920Z,6.50
2019-03-25T18:48:33.811Z,6.50
2019-03-25T18:51:01.759Z,6.40
2019-03-25T18:53:29.723Z,6.30
2019-03-25T18:55:57.635Z,6.20
2019-03-25T18:58:25.492Z,6.20
2019-03-25T19:00:53.461Z,6.20
2019-03-25T19:03:21.420Z,6.20
2019-03-25T19:05:49.352Z,6.10
2019-03-25T19:08:17.639Z,6.10
2019-03-25T19:10:45.573Z,6.10
2019-03-25T19:13:13.373Z,6.10
2019-03-25T19:15:41.312Z,6.00
2019-03-25T19:18:09.489Z,4.60
2019-03-25T19:20:37.315Z,5.90
2019-03-25T19:23:05.208Z,5.90
2019-03-25T19:25:33.012Z,5.90
2019-03-25T19:28:00.897Z,5.80
2019-03-25T19:30:28.772Z,5.80
2019-03-25T19:32:56.594Z,5.80
2019-03-25T19:35:24.470Z,5.80
2019-03-25T19:37:52.296Z,5.80
2019-03-25T19:40:20.147Z,5.80
2019-03-25T19:42:48.142Z,5.80
2019-03-25T19:45:16.187Z,5.80
2019-03-25T19:47:44.048Z,5.80
2019-03-25T19:50:12.057Z,5.80
2019-03-25T19:52:39.949Z,5.80
2019-03-25T19:55:08.349Z,5.80
2019-03-25T19:57:36.339Z,5.80
2019-03-25T20:00:05.914Z,5.80
2019-03-25T20:02:33.926Z,5.80
2019-03-25T20:05:01.903Z,5.80
2019-03-25T20:07:29.884Z,5.80
2019-03-25T20:09:57.796Z,5.80
2019-03-25T20:12:25.704Z,5.80
2019-03-25T20:14:53.543Z,5.90
2019-03-25T20:17:21.408Z,5.80
2019-03-25T20:19:49.290Z,5.90
2019-03-25T20:22:24.325Z,5.90
2019-03-25T20:24:52.223Z,5.80
2019-03-25T20:27:20.191Z,5.80
2019-03-25T20:29:48.104Z,5.80
2019-03-25T20:32:16.033Z,5.70
2019-03-25T20:34:43.955Z,5.60
2019-03-25T20:37:11.926Z,5.60
2019-03-25T20:39:39.733Z,5.50
2019-03-25T20:42:07.800Z,5.40
2019-03-25T20:44:35.758Z,5.40
2019-03-25T20:47:03.720Z,5.30
2019-03-25T20:49:31.546Z,5.30
2019-03-25T20:51:59.518Z,5.20
2019-03-25T20:54:27.342Z,5.20
2019-03-25T20:56:55.320Z,5.10
2019-03-25T20:59:23.116Z,5.10
2019-03-25T21:01:50.962Z,5.00
2019-03-25T21:04:18.827Z,5.00
2019-03-25T21:06:46.695Z,5.00
2019-03-25T21:09:14.604Z,5.00
2019-03-25T21:11:42.536Z,5.00
2019-03-25T21:14:10.427Z,4.90
2019-03-25T21:16:38.222Z,4.90
2019-03-25T21:19:06.120Z,4.80
2019-03-25T21:21:33.990Z,4.80
2019-03-25T21:24:01.957Z,4.80
2019-03-25T21:26:29.851Z,4.80
2019-03-25T21:28:57.731Z,4.80
2019-03-25T21:31:25.632Z,4.70
2019-03-25T21:33:53.574Z,4.70
2019-03-25T21:36:21.456Z,4.70
2019-03-25T21:38:49.255Z,4.60
2019-03-25T21:41:17.159Z,4.60
2019-03-25T21:43:45.119Z,4.60
2019-03-25T21:46:13.129Z,4.60
2019-03-25T21:48:40.941Z,4.60
2019-03-25T21:51:08.737Z,4.60
2019-03-25T21:53:36.577Z,4.60
2019-03-25T21:56:04.528Z,4.70
2019-03-25T21:58:32.423Z,4.70
2019-03-25T22:01:00.347Z,4.70
2019-03-25T22:03:28.239Z,4.80
2019-03-25T22:05:56.102Z,4.80
2019-03-25T22:08:23.941Z,4.90
2019-03-25T22:10:51.826Z,4.90
2019-03-25T22:13:19.727Z,5.00
2019-03-25T22:15:47.566Z,5.10
2019-03-25T22:18:15.519Z,5.10
2019-03-25T22:20:43.367Z,5.10
2019-03-25T22:23:11.280Z,5.20
2019-03-25T22:25:39.067Z,5.20
2019-03-25T22:28:07.013Z,5.20
2019-03-25T22:30:34.899Z,5.30
2019-03-25T22:33:02.797Z,5.30
2019-03-25T22:35:30.714Z,5.30
2019-03-25T22:37:58.655Z,5.40
2019-03-25T22:40:26.540Z,5.40
2019-03-25T22:42:54.531Z,5.40
2019-03-25T22:45:28.788Z,5.40
2019-03-25T22:47:56.655Z,5.50
2019-03-25T22:50:29.038Z,5.40
2019-03-25T22:52:57.315Z,5.40
2019-03-25T22:55:25.175Z,5.40
2019-03-25T22:57:53.003Z,5.40
2019-03-25T23:00:23.119Z,5.40
2019-03-25T23:02:51.038Z,5.40
2019-03-25T23:05:19.046Z,5.40
2019-03-25T23:07:46.912Z,5.40
2019-03-25T23:10:14.736Z,5.40
2019-03-25T23:12:42.668Z,5.30
2019-03-25T23:15:10.518Z,5.20
2019-03-25T23:17:38.399Z,5.20
2019-03-25T23:20:06.291Z,5.20
2019-03-25T23:22:34.232Z,5.10
2019-03-25T23:25:02.069Z,5.00
2019-03-25T23:27:29.989Z,5.00
2019-03-25T23:29:57.849Z,4.90
2019-03-25T23:32:25.764Z,4.80
2019-03-25T23:34:53.635Z,4.70
2019-03-25T23:37:21.446Z,4.60
2019-03-25T23:39:49.394Z,4.60
2019-03-25T23:42:17.290Z,4.50
2019-03-25T23:44:45.220Z,4.40
2019-03-25T23:47:13.122Z,4.40
2019-03-25T23:49:40.968Z,4.40
2019-03-25T23:52:08.799Z,4.30
2019-03-25T23:54:36.691Z,4.20
2019-03-25T23:57:04.616Z,4.20
2019-03-25T23:59:32.550Z,4.20
